sensor_id;sensor_type;location;lat;lon;timestamp;pressure;altitude;pressure_sealevel;temperature;humidity
83424;BME280;73355;49.044;8.686;2024-02-28T00:01:23;99689.75;;;7.40;71.50
83424;BME280;73355;49.044;8.686;2024-02-28T00:03:48;99695.13;;;7.36;72.16
83424;BME280;73355;49.044;8.686;2024-02-28T00:06:16;99696.66;;;7.30;72.29
83424;BME280;73355;49.044;8.686;2024-02-28T00:08:41;99690.47;;;7.26;72.09
83424;BME280;73355;49.044;8.686;2024-02-28T00:11:06;99697.41;;;7.24;72.13
83424;BME280;73355;49.044;8.686;2024-02-28T00:13:32;99692.34;;;7.19;72.35
83424;BME280;73355;49.044;8.686;2024-02-28T00:15:57;99691.16;;;7.13;72.15
83424;BME280;73355;49.044;8.686;2024-02-28T00:18:22;99697.72;;;7.08;72.39
83424;BME280;73355;49.044;8.686;2024-02-28T00:20:48;99695.03;;;7.04;72.83
83424;BME280;73355;49.044;8.686;2024-02-28T00:23:14;99693.47;;;7.03;72.91
83424;BME280;73355;49.044;8.686;2024-02-28T00:25:39;99700.81;;;7.03;72.63
83424;BME280;73355;49.044;8.686;2024-02-28T00:28:04;99703.50;;;6.99;72.86
83424;BME280;73355;49.044;8.686;2024-02-28T00:30:30;99708.50;;;6.97;72.50
83424;BME280;73355;49.044;8.686;2024-02-28T00:32:55;99707.31;;;6.95;72.53
83424;BME280;73355;49.044;8.686;2024-02-28T00:35:20;99718.53;;;6.93;72.64
83424;BME280;73355;49.044;8.686;2024-02-28T00:37:45;99715.81;;;6.90;72.50
83424;BME280;73355;49.044;8.686;2024-02-28T00:40:11;99711.56;;;6.89;72.95
83424;BME280;73355;49.044;8.686;2024-02-28T00:42:37;99708.09;;;6.88;72.60
83424;BME280;73355;49.044;8.686;2024-02-28T00:45:02;99715.78;;;6.86;72.75
83424;BME280;73355;49.044;8.686;2024-02-28T00:47:28;99712.69;;;6.84;72.35
83424;BME280;73355;49.044;8.686;2024-02-28T00:49:53;99713.88;;;6.87;72.62
83424;BME280;73355;49.044;8.686;2024-02-28T00:52:18;99721.63;;;6.92;72.46
83424;BME280;73355;49.044;8.686;2024-02-28T00:54:44;99718.56;;;6.97;72.48
83424;BME280;73355;49.044;8.686;2024-02-28T00:57:09;99711.63;;;7.03;72.30
83424;BME280;73355;49.044;8.686;2024-02-28T00:59:34;99723.28;;;7.11;72.02
83424;BME280;73355;49.044;8.686;2024-02-28T01:02:00;99727.94;;;7.17;72.11
83424;BME280;73355;49.044;8.686;2024-02-28T01:04:25;99723.69;;;7.20;71.54
83424;BME280;73355;49.044;8.686;2024-02-28T01:06:50;99727.16;;;7.17;71.45
83424;BME280;73355;49.044;8.686;2024-02-28T01:09:16;99731.03;;;7.16;71.81
83424;BME280;73355;49.044;8.686;2024-02-28T01:11:41;99734.16;;;7.21;71.43
83424;BME280;73355;49.044;8.686;2024-02-28T01:14:06;99729.50;;;7.25;71.21
83424;BME280;73355;49.044;8.686;2024-02-28T01:16:32;99733.41;;;7.28;71.34
83424;BME280;73355;49.044;8.686;2024-02-28T01:18:57;99729.91;;;7.31;70.63
83424;BME280;73355;49.044;8.686;2024-02-28T01:21:22;99735.75;;;7.36;70.53
83424;BME280;73355;49.044;8.686;2024-02-28T01:23:48;99728.03;;;7.42;70.20
83424;BME280;73355;49.044;8.686;2024-02-28T01:26:13;99726.09;;;7.42;70.07
83424;BME280;73355;49.044;8.686;2024-02-28T01:28:38;99732.28;;;7.43;70.04
83424;BME280;73355;49.044;8.686;2024-02-28T01:31:04;99736.56;;;7.44;70.15
83424;BME280;73355;49.044;8.686;2024-02-28T01:33:30;99731.50;;;7.39;69.94
83424;BME280;73355;49.044;8.686;2024-02-28T01:35:56;99731.47;;;7.32;69.43
83424;BME280;73355;49.044;8.686;2024-02-28T01:38:21;99732.63;;;7.31;69.58
83424;BME280;73355;49.044;8.686;2024-02-28T01:40:47;99726.84;;;7.32;69.52
83424;BME280;73355;49.044;8.686;2024-02-28T01:43:13;99726.44;;;7.30;69.60
83424;BME280;73355;49.044;8.686;2024-02-28T01:45:38;99724.50;;;7.27;69.13
83424;BME280;73355;49.044;8.686;2024-02-28T01:48:04;99727.94;;;7.17;68.95
83424;BME280;73355;49.044;8.686;2024-02-28T01:50:32;99725.16;;;7.03;69.35
83424;BME280;73355;49.044;8.686;2024-02-28T01:52:58;99723.22;;;7.00;69.47
83424;BME280;73355;49.044;8.686;2024-02-28T01:55:25;99721.31;;;7.04;69.18
83424;BME280;73355;49.044;8.686;2024-02-28T01:57:51;99712.81;;;7.09;69.30
83424;BME280;73355;49.044;8.686;2024-02-28T02:00:17;99726.34;;;7.13;69.58
83424;BME280;73355;49.044;8.686;2024-02-28T02:02:43;99729.88;;;7.17;68.92
83424;BME280;73355;49.044;8.686;2024-02-28T02:05:09;99737.22;;;7.20;69.05
83424;BME280;73355;49.044;8.686;2024-02-28T02:07:35;99739.94;;;7.20;68.90
83424;BME280;73355;49.044;8.686;2024-02-28T02:10:01;99739.16;;;7.16;68.48
83424;BME280;73355;49.044;8.686;2024-02-28T02:12:27;99744.47;;;7.01;68.43
83424;BME280;73355;49.044;8.686;2024-02-28T02:14:52;99750.91;;;6.79;68.96
83424;BME280;73355;49.044;8.686;2024-02-28T02:17:17;99745.75;;;6.56;69.11
83424;BME280;73355;49.044;8.686;2024-02-28T02:19:43;99750.22;;;6.35;69.75
83424;BME280;73355;49.044;8.686;2024-02-28T02:22:08;99754.72;;;6.20;70.37
83424;BME280;73355;49.044;8.686;2024-02-28T02:24:35;99756.94;;;6.07;71.07
83424;BME280;73355;49.044;8.686;2024-02-28T02:27:01;99759.56;;;6.00;71.11
83424;BME280;73355;49.044;8.686;2024-02-28T02:29:27;99766.41;;;5.91;71.26
83424;BME280;73355;49.044;8.686;2024-02-28T02:31:53;99768.22;;;5.83;71.79
83424;BME280;73355;49.044;8.686;2024-02-28T02:34:19;99779.34;;;5.74;71.90
83424;BME280;73355;49.044;8.686;2024-02-28T02:36:44;99776.56;;;5.67;72.50
83424;BME280;73355;49.044;8.686;2024-02-28T02:39:09;99775.69;;;5.60;72.33
83424;BME280;73355;49.044;8.686;2024-02-28T02:41:34;99780.28;;;5.56;72.81
83424;BME280;73355;49.044;8.686;2024-02-28T02:44:00;99776.03;;;5.58;73.00
83424;BME280;73355;49.044;8.686;2024-02-28T02:46:25;99788.84;;;5.65;73.31
83424;BME280;73355;49.044;8.686;2024-02-28T02:48:50;99795.53;;;5.74;73.46
83424;BME280;73355;49.044;8.686;2024-02-28T02:51:18;99792.16;;;5.85;72.83
83424;BME280;73355;49.044;8.686;2024-02-28T02:53:44;99807.38;;;5.96;72.72
83424;BME280;73355;49.044;8.686;2024-02-28T02:56:09;99812.88;;;6.03;72.55
83424;BME280;73355;49.044;8.686;2024-02-28T02:58:34;99812.88;;;6.03;72.85
83424;BME280;73355;49.044;8.686;2024-02-28T03:01:00;99820.63;;;6.08;72.86
83424;BME280;73355;49.044;8.686;2024-02-28T03:03:25;99816.84;;;6.16;72.51
83424;BME280;73355;49.044;8.686;2024-02-28T03:05:50;99823.09;;;6.24;72.40
83424;BME280;73355;49.044;8.686;2024-02-28T03:08:16;99824.69;;;6.29;72.55
83424;BME280;73355;49.044;8.686;2024-02-28T03:10:41;99825.53;;;6.36;72.00
83424;BME280;73355;49.044;8.686;2024-02-28T03:13:06;99830.63;;;6.45;72.10
83424;BME280;73355;49.044;8.686;2024-02-28T03:15:33;99831.44;;;6.49;72.23
83424;BME280;73355;49.044;8.686;2024-02-28T03:17:58;99838.38;;;6.50;72.10
83424;BME280;73355;49.044;8.686;2024-02-28T03:20:23;99831.44;;;6.49;71.73
83424;BME280;73355;49.044;8.686;2024-02-28T03:22:49;99831.44;;;6.49;71.40
83424;BME280;73355;49.044;8.686;2024-02-28T03:25:14;99831.47;;;6.52;71.67
83424;BME280;73355;49.044;8.686;2024-02-28T03:27:40;99829.19;;;6.54;71.60
83424;BME280;73355;49.044;8.686;2024-02-28T03:30:05;99829.97;;;6.55;71.67
83424;BME280;73355;49.044;8.686;2024-02-28T03:32:31;99837.66;;;6.53;71.05
83424;BME280;73355;49.044;8.686;2024-02-28T03:34:56;99840.28;;;6.46;71.26
83424;BME280;73355;49.044;8.686;2024-02-28T03:37:22;99838.34;;;6.43;71.59
83424;BME280;73355;49.044;8.686;2024-02-28T03:39:47;99831.75;;;6.44;71.69
83424;BME280;73355;49.044;8.686;2024-02-28T03:42:12;99840.28;;;6.46;71.25
83424;BME280;73355;49.044;8.686;2024-02-28T03:44:37;99833.31;;;6.41;71.42
83424;BME280;73355;49.044;8.686;2024-02-28T03:47:03;99833.31;;;6.41;71.73
83424;BME280;73355;49.044;8.686;2024-02-28T03:49:28;99841.06;;;6.46;71.77
83424;BME280;73355;49.044;8.686;2024-02-28T03:51:53;99844.22;;;6.52;71.51
83424;BME280;73355;49.044;8.686;2024-02-28T03:54:19;99842.31;;;6.56;71.35
83424;BME280;73355;49.044;8.686;2024-02-28T03:56:44;99849.28;;;6.57;71.26
83424;BME280;73355;49.044;8.686;2024-02-28T03:59:09;99844.22;;;6.55;71.57
83424;BME280;73355;49.044;8.686;2024-02-28T04:01:35;99854.31;;;6.58;70.96
83424;BME280;73355;49.044;8.686;2024-02-28T04:04:00;99853.97;;;6.60;71.33
83424;BME280;73355;49.044;8.686;2024-02-28T04:06:25;99855.91;;;6.63;70.93
83424;BME280;73355;49.044;8.686;2024-02-28T04:08:51;99854.00;;;6.67;70.96
83424;BME280;73355;49.044;8.686;2024-02-28T04:11:16;99861.38;;;6.70;70.75
83424;BME280;73355;49.044;8.686;2024-02-28T04:13:41;99866.81;;;6.74;70.60
83424;BME280;73355;49.044;8.686;2024-02-28T04:16:07;99862.22;;;6.78;70.59
83424;BME280;73355;49.044;8.686;2024-02-28T04:18:33;99869.94;;;6.79;70.73
83424;BME280;73355;49.044;8.686;2024-02-28T04:20:58;99867.59;;;6.74;70.38
83424;BME280;73355;49.044;8.686;2024-02-28T04:23:24;99869.16;;;6.75;70.85
83424;BME280;73355;49.044;8.686;2024-02-28T04:25:49;99873.44;;;6.80;70.43
83424;BME280;73355;49.044;8.686;2024-02-28T04:28:14;99875.78;;;6.81;70.27
83424;BME280;73355;49.044;8.686;2024-02-28T04:30:40;99885.00;;;6.77;70.89
83424;BME280;73355;49.044;8.686;2024-02-28T04:33:05;99886.50;;;6.71;70.92
83424;BME280;73355;49.044;8.686;2024-02-28T04:35:30;99888.00;;;6.64;70.61
83424;BME280;73355;49.044;8.686;2024-02-28T04:37:56;99890.63;;;6.57;71.02
83424;BME280;73355;49.044;8.686;2024-02-28T04:40:21;99888.63;;;6.51;71.03
83424;BME280;73355;49.044;8.686;2024-02-28T04:42:46;99895.16;;;6.46;71.44
83424;BME280;73355;49.044;8.686;2024-02-28T04:45:12;99897.78;;;6.39;71.70
83424;BME280;73355;49.044;8.686;2024-02-28T04:47:37;99901.19;;;6.33;71.99
83424;BME280;73355;49.044;8.686;2024-02-28T04:50:04;99905.78;;;6.29;71.98
83424;BME280;73355;49.044;8.686;2024-02-28T04:52:33;99912.38;;;6.31;72.26
83424;BME280;73355;49.044;8.686;2024-02-28T04:54:59;99917.00;;;6.31;72.13
83424;BME280;73355;49.044;8.686;2024-02-28T04:57:24;99912.75;;;6.30;71.89
83424;BME280;73355;49.044;8.686;2024-02-28T04:59:49;99920.75;;;6.22;71.91
83424;BME280;73355;49.044;8.686;2024-02-28T05:02:15;99925.34;;;6.18;72.19
83424;BME280;73355;49.044;8.686;2024-02-28T05:04:41;99932.59;;;6.11;72.50
83424;BME280;73355;49.044;8.686;2024-02-28T05:07:06;99934.81;;;6.02;72.72
83424;BME280;73355;49.044;8.686;2024-02-28T05:09:33;99938.19;;;5.95;72.74
83424;BME280;73355;49.044;8.686;2024-02-28T05:11:58;99934.28;;;5.93;73.42
83424;BME280;73355;49.044;8.686;2024-02-28T05:14:24;99947.75;;;5.89;73.03
83424;BME280;73355;49.044;8.686;2024-02-28T05:16:49;99941.94;;;5.87;73.36
83424;BME280;73355;49.044;8.686;2024-02-28T05:19:14;99938.94;;;5.92;73.49
83424;BME280;73355;49.044;8.686;2024-02-28T05:21:42;99938.28;;;6.02;73.49
83424;BME280;73355;49.044;8.686;2024-02-28T05:24:08;99937.63;;;6.12;73.34
83424;BME280;73355;49.044;8.686;2024-02-28T05:26:35;99934.28;;;6.22;73.35
83424;BME280;73355;49.044;8.686;2024-02-28T05:29:00;99934.38;;;6.30;73.15
83424;BME280;73355;49.044;8.686;2024-02-28T05:31:26;99930.59;;;6.38;72.50
83424;BME280;73355;49.044;8.686;2024-02-28T05:33:53;99934.13;;;6.42;72.51
83424;BME280;73355;49.044;8.686;2024-02-28T05:36:19;99933.34;;;6.41;72.10
83424;BME280;73355;49.044;8.686;2024-02-28T05:38:45;99938.00;;;6.44;71.72
83424;BME280;73355;49.044;8.686;2024-02-28T05:41:10;99931.06;;;6.43;71.82
83424;BME280;73355;49.044;8.686;2024-02-28T05:43:38;99937.16;;;6.37;71.54
83424;BME280;73355;49.044;8.686;2024-02-28T05:46:03;99929.38;;;6.32;71.46
83424;BME280;73355;49.044;8.686;2024-02-28T05:48:29;99938.28;;;6.32;71.22
83424;BME280;73355;49.044;8.686;2024-02-28T05:50:54;99934.03;;;6.35;71.47
83424;BME280;73355;49.044;8.686;2024-02-28T05:53:19;99939.47;;;6.38;71.18
83424;BME280;73355;49.044;8.686;2024-02-28T05:55:45;99946.78;;;6.34;71.28
83424;BME280;73355;49.044;8.686;2024-02-28T05:58:10;99952.38;;;6.18;70.96
83424;BME280;73355;49.044;8.686;2024-02-28T06:00:35;99952.91;;;5.98;71.11
83424;BME280;73355;49.044;8.686;2024-02-28T06:03:01;99956.94;;;5.85;71.76
83424;BME280;73355;49.044;8.686;2024-02-28T06:05:26;99958.81;;;5.80;71.62
83424;BME280;73355;49.044;8.686;2024-02-28T06:07:51;99956.41;;;5.75;71.78
83424;BME280;73355;49.044;8.686;2024-02-28T06:10:17;99957.91;;;5.69;72.26
83424;BME280;73355;49.044;8.686;2024-02-28T06:12:42;99961.75;;;5.68;72.33
83424;BME280;73355;49.044;8.686;2024-02-28T06:15:07;99962.09;;;5.67;72.54
83424;BME280;73355;49.044;8.686;2024-02-28T06:17:33;99958.16;;;5.61;72.30
83424;BME280;73355;49.044;8.686;2024-02-28T06:19:58;99972.66;;;5.53;72.64
83424;BME280;73355;49.044;8.686;2024-02-28T06:22:23;99963.19;;;5.62;73.30
83424;BME280;73355;49.044;8.686;2024-02-28T06:24:49;99962.56;;;5.72;73.21
83424;BME280;73355;49.044;8.686;2024-02-28T06:27:15;99981.78;;;5.67;72.78
83424;BME280;73355;49.044;8.686;2024-02-28T06:29:40;99981.25;;;5.58;72.70
83424;BME280;73355;49.044;8.686;2024-02-28T06:32:06;99988.88;;;5.53;72.69
83424;BME280;73355;49.044;8.686;2024-02-28T06:34:31;99985.63;;;5.40;72.74
83424;BME280;73355;49.044;8.686;2024-02-28T06:36:56;99991.56;;;5.26;72.56
83424;BME280;73355;49.044;8.686;2024-02-28T06:39:22;99987.19;;;5.18;73.04
83424;BME280;73355;49.044;8.686;2024-02-28T06:41:47;99990.56;;;5.12;72.95
83424;BME280;73355;49.044;8.686;2024-02-28T06:44:14;100001.16;;;5.01;73.50
83424;BME280;73355;49.044;8.686;2024-02-28T06:46:39;99989.81;;;4.92;73.68
83424;BME280;73355;49.044;8.686;2024-02-28T06:49:05;100001.63;;;4.84;74.32
83424;BME280;73355;49.044;8.686;2024-02-28T06:51:30;100010.22;;;4.70;74.57
83424;BME280;73355;49.044;8.686;2024-02-28T06:53:55;100015.06;;;4.61;74.77
83424;BME280;73355;49.044;8.686;2024-02-28T06:56:21;100016.09;;;4.56;75.03
83424;BME280;73355;49.044;8.686;2024-02-28T06:58:46;100023.78;;;4.54;75.48
83424;BME280;73355;49.044;8.686;2024-02-28T07:01:11;100028.75;;;4.52;75.69
83424;BME280;73355;49.044;8.686;2024-02-28T07:03:36;100037.91;;;4.48;76.07
83424;BME280;73355;49.044;8.686;2024-02-28T07:06:02;100036.13;;;4.36;76.18
83424;BME280;73355;49.044;8.686;2024-02-28T07:08:27;100041.34;;;4.29;76.58
83424;BME280;73355;49.044;8.686;2024-02-28T07:10:52;100048.59;;;4.25;77.01
83424;BME280;73355;49.044;8.686;2024-02-28T07:13:19;100048.25;;;4.27;77.53
83424;BME280;73355;49.044;8.686;2024-02-28T07:15:45;100043.69;;;4.31;77.61
83424;BME280;73355;49.044;8.686;2024-02-28T07:18:11;100054.13;;;4.32;77.65
83424;BME280;73355;49.044;8.686;2024-02-28T07:20:36;100049.16;;;4.34;77.55
83424;BME280;73355;49.044;8.686;2024-02-28T07:23:01;100054.81;;;4.29;77.51
83424;BME280;73355;49.044;8.686;2024-02-28T07:25:27;100060.78;;;4.19;77.90
83424;BME280;73355;49.044;8.686;2024-02-28T07:27:52;100067.28;;;4.18;78.28
83424;BME280;73355;49.044;8.686;2024-02-28T07:30:18;100067.09;;;4.27;78.39
83424;BME280;73355;49.044;8.686;2024-02-28T07:32:43;100059.94;;;4.34;78.67
83424;BME280;73355;49.044;8.686;2024-02-28T07:35:08;100069.31;;;4.40;78.28
83424;BME280;73355;49.044;8.686;2024-02-28T07:37:34;100072.31;;;4.54;78.91
83424;BME280;73355;49.044;8.686;2024-02-28T07:39:59;100074.88;;;4.67;78.58
83424;BME280;73355;49.044;8.686;2024-02-28T07:42:24;100080.09;;;4.79;78.48
83424;BME280;73355;49.044;8.686;2024-02-28T07:44:50;100077.97;;;4.88;78.22
83424;BME280;73355;49.044;8.686;2024-02-28T07:47:19;100080.81;;;4.95;77.66
83424;BME280;73355;49.044;8.686;2024-02-28T07:49:44;100082.00;;;4.97;77.21
83424;BME280;73355;49.044;8.686;2024-02-28T07:52:09;100092.34;;;4.95;76.98
83424;BME280;73355;49.044;8.686;2024-02-28T07:54:35;100095.19;;;5.03;76.74
83424;BME280;73355;49.044;8.686;2024-02-28T07:57:01;100087.97;;;5.07;77.01
83424;BME280;73355;49.044;8.686;2024-02-28T07:59:27;100093.13;;;5.15;76.91
83424;BME280;73355;49.044;8.686;2024-02-28T08:01:52;100092.63;;;5.29;76.82
83424;BME280;73355;49.044;8.686;2024-02-28T08:04:17;100096.63;;;5.38;76.61
83424;BME280;73355;49.044;8.686;2024-02-28T08:06:42;100105.69;;;5.50;76.04
83424;BME280;73355;49.044;8.686;2024-02-28T08:09:08;100105.56;;;5.65;76.08
83424;BME280;73355;49.044;8.686;2024-02-28T08:11:33;100095.25;;;5.71;75.52
83424;BME280;73355;49.044;8.686;2024-02-28T08:13:59;100097.91;;;5.67;75.18
83424;BME280;73355;49.044;8.686;2024-02-28T08:16:24;100099.88;;;5.70;74.82
83424;BME280;73355;49.044;8.686;2024-02-28T08:18:49;100103.59;;;5.85;74.68
83424;BME280;73355;49.044;8.686;2024-02-28T08:21:14;100105.75;;;5.99;74.73
83424;BME280;73355;49.044;8.686;2024-02-28T08:23:40;100103.97;;;6.10;74.31
83424;BME280;73355;49.044;8.686;2024-02-28T08:26:05;100105.31;;;6.19;74.00
83424;BME280;73355;49.044;8.686;2024-02-28T08:28:30;100118.81;;;6.19;73.54
83424;BME280;73355;49.044;8.686;2024-02-28T08:30:56;100109.09;;;6.15;73.41
83424;BME280;73355;49.044;8.686;2024-02-28T08:33:21;100112.09;;;6.10;74.07
83424;BME280;73355;49.044;8.686;2024-02-28T08:35:46;100109.16;;;6.18;73.76
83424;BME280;73355;49.044;8.686;2024-02-28T08:38:11;100107.72;;;6.28;74.18
83424;BME280;73355;49.044;8.686;2024-02-28T08:40:37;100110.84;;;6.30;73.20
83424;BME280;73355;49.044;8.686;2024-02-28T08:43:02;100103.25;;;6.39;73.58
83424;BME280;73355;49.044;8.686;2024-02-28T08:45:28;100104.63;;;6.56;73.10
83424;BME280;73355;49.044;8.686;2024-02-28T08:47:53;100105.97;;;6.69;73.34
83424;BME280;73355;49.044;8.686;2024-02-28T08:50:18;100109.59;;;6.80;72.62
83424;BME280;73355;49.044;8.686;2024-02-28T08:52:44;100108.53;;;6.88;72.17
83424;BME280;73355;49.044;8.686;2024-02-28T08:55:09;100108.56;;;6.92;72.10
83424;BME280;73355;49.044;8.686;2024-02-28T08:57:35;100108.78;;;7.13;71.67
83424;BME280;73355;49.044;8.686;2024-02-28T09:00:00;100112.47;;;7.31;71.53
83424;BME280;73355;49.044;8.686;2024-02-28T09:02:25;100115.97;;;7.32;70.97
83424;BME280;73355;49.044;8.686;2024-02-28T09:04:50;100102.41;;;7.28;70.50
83424;BME280;73355;49.044;8.686;2024-02-28T09:07:18;100109.41;;;7.33;70.49
83424;BME280;73355;49.044;8.686;2024-02-28T09:09:47;100104.00;;;7.36;70.55
83424;BME280;73355;49.044;8.686;2024-02-28T09:12:13;100104.09;;;7.43;70.46
83424;BME280;73355;49.044;8.686;2024-02-28T09:14:38;100106.09;;;7.50;70.51
83424;BME280;73355;49.044;8.686;2024-02-28T09:17:04;100111.69;;;7.71;70.39
83424;BME280;73355;49.044;8.686;2024-02-28T09:19:30;100106.78;;;7.87;69.65
83424;BME280;73355;49.044;8.686;2024-02-28T09:21:55;100125.03;;;7.91;69.43
83424;BME280;73355;49.044;8.686;2024-02-28T09:24:20;100119.16;;;7.85;68.86
83424;BME280;73355;49.044;8.686;2024-02-28T09:26:46;100126.81;;;7.76;68.85
83424;BME280;73355;49.044;8.686;2024-02-28T09:29:11;100122.88;;;7.70;68.97
83424;BME280;73355;49.044;8.686;2024-02-28T09:31:36;100121.41;;;7.76;69.10
83424;BME280;73355;49.044;8.686;2024-02-28T09:34:01;100120.31;;;7.87;68.83
83424;BME280;73355;49.044;8.686;2024-02-28T09:36:32;100130.47;;;7.94;68.97
83424;BME280;73355;49.044;8.686;2024-02-28T09:38:57;100126.25;;;8.04;69.33
83424;BME280;73355;49.044;8.686;2024-02-28T09:41:23;100116.19;;;8.04;68.76
83424;BME280;73355;49.044;8.686;2024-02-28T09:43:51;100123.59;;;8.07;68.55
83424;BME280;73355;49.044;8.686;2024-02-28T09:46:17;100132.16;;;8.13;68.41
83424;BME280;73355;49.044;8.686;2024-02-28T09:48:43;100129.13;;;8.25;68.56
83424;BME280;73355;49.044;8.686;2024-02-28T09:51:11;100133.53;;;8.40;68.05
83424;BME280;73355;49.044;8.686;2024-02-28T09:53:37;100132.81;;;8.50;67.88
83424;BME280;73355;49.044;8.686;2024-02-28T09:56:03;100130.13;;;8.57;67.16
83424;BME280;73355;49.044;8.686;2024-02-28T09:58:30;100130.13;;;8.57;66.86
83424;BME280;73355;49.044;8.686;2024-02-28T10:00:59;100136.34;;;8.61;66.67
83424;BME280;73355;49.044;8.686;2024-02-28T10:03:24;100137.81;;;8.45;66.49
83424;BME280;73355;49.044;8.686;2024-02-28T10:05:50;100134.94;;;8.27;67.03
83424;BME280;73355;49.044;8.686;2024-02-28T10:08:15;100140.00;;;8.25;67.85
83424;BME280;73355;49.044;8.686;2024-02-28T10:10:48;100143.19;;;8.38;68.13
83424;BME280;73355;49.044;8.686;2024-02-28T10:13:16;100150.63;;;8.51;67.57
83424;BME280;73355;49.044;8.686;2024-02-28T10:15:41;100142.94;;;8.60;67.71
83424;BME280;73355;49.044;8.686;2024-02-28T10:18:06;100147.25;;;8.68;67.51
83424;BME280;73355;49.044;8.686;2024-02-28T10:20:32;100150.00;;;8.79;67.16
83424;BME280;73355;49.044;8.686;2024-02-28T10:22:57;100146.56;;;8.89;67.17
83424;BME280;73355;49.044;8.686;2024-02-28T10:25:22;100146.59;;;8.93;67.08
83424;BME280;73355;49.044;8.686;2024-02-28T10:27:48;100156.72;;;8.99;66.76
83424;BME280;73355;49.044;8.686;2024-02-28T10:30:14;100157.13;;;9.12;66.64
83424;BME280;73355;49.044;8.686;2024-02-28T10:32:50;100176.16;;;9.23;66.17
83424;BME280;73355;49.044;8.686;2024-02-28T10:35:19;100173.81;;;9.14;65.65
83424;BME280;73355;49.044;8.686;2024-02-28T10:37:46;100185.81;;;9.06;65.50
83424;BME280;73355;49.044;8.686;2024-02-28T10:40:13;100185.38;;;8.97;66.07
83424;BME280;73355;49.044;8.686;2024-02-28T10:42:42;100186.94;;;9.01;65.91
83424;BME280;73355;49.044;8.686;2024-02-28T10:45:09;100188.50;;;9.02;65.62
83424;BME280;73355;49.044;8.686;2024-02-28T10:47:37;100191.66;;;9.08;65.68
83424;BME280;73355;49.044;8.686;2024-02-28T10:50:03;100189.72;;;9.12;65.80
83424;BME280;73355;49.044;8.686;2024-02-28T10:52:33;100190.91;;;9.11;66.14
83424;BME280;73355;49.044;8.686;2024-02-28T10:54:59;100191.31;;;9.20;66.44
83424;BME280;73355;49.044;8.686;2024-02-28T10:57:26;100189.78;;;9.26;65.66
83424;BME280;73355;49.044;8.686;2024-02-28T10:59:51;100175.03;;;9.27;64.67
83424;BME280;73355;49.044;8.686;2024-02-28T11:02:18;100182.81;;;9.36;64.43
83424;BME280;73355;49.044;8.686;2024-02-28T11:04:43;100185.97;;;9.48;64.14
83424;BME280;73355;49.044;8.686;2024-02-28T11:07:09;100181.75;;;9.62;63.08
83424;BME280;73355;49.044;8.686;2024-02-28T11:09:34;100193.81;;;9.78;63.61
83424;BME280;73355;49.044;8.686;2024-02-28T11:12:00;100189.53;;;9.99;63.54
83424;BME280;73355;49.044;8.686;2024-02-28T11:14:25;100191.53;;;10.23;62.93
83424;BME280;73355;49.044;8.686;2024-02-28T11:17:02;100191.47;;;10.55;61.63
83424;BME280;73355;49.044;8.686;2024-02-28T11:19:28;100185.22;;;10.75;59.74
83424;BME280;73355;49.044;8.686;2024-02-28T11:21:55;100181.75;;;10.64;58.86
83424;BME280;73355;49.044;8.686;2024-02-28T11:24:28;100182.16;;;10.63;58.84
83424;BME280;73355;49.044;8.686;2024-02-28T11:26:54;100182.91;;;10.63;59.00
83424;BME280;73355;49.044;8.686;2024-02-28T11:29:27;100186.03;;;10.69;58.95
83424;BME280;73355;49.044;8.686;2024-02-28T11:31:54;100192.97;;;10.88;58.28
83424;BME280;73355;49.044;8.686;2024-02-28T11:34:20;100191.72;;;11.13;57.63
83424;BME280;73355;49.044;8.686;2024-02-28T11:36:49;100180.00;;;11.27;57.70
83424;BME280;73355;49.044;8.686;2024-02-28T11:39:16;100187.44;;;11.16;57.52
83424;BME280;73355;49.044;8.686;2024-02-28T11:41:42;100184.72;;;11.09;57.63
83424;BME280;73355;49.044;8.686;2024-02-28T11:44:11;100189.41;;;11.01;57.81
83424;BME280;73355;49.044;8.686;2024-02-28T11:46:37;100189.06;;;10.92;57.82
83424;BME280;73355;49.044;8.686;2024-02-28T11:49:03;100196.50;;;10.74;57.89
83424;BME280;73355;49.044;8.686;2024-02-28T11:51:29;100196.13;;;10.68;58.37
83424;BME280;73355;49.044;8.686;2024-02-28T11:53:55;100191.91;;;10.53;57.89
83424;BME280;73355;49.044;8.686;2024-02-28T11:56:20;100183.72;;;10.43;58.39
83424;BME280;73355;49.044;8.686;2024-02-28T11:58:50;100193.06;;;10.42;58.61
83424;BME280;73355;49.044;8.686;2024-02-28T12:01:20;100193.06;;;10.45;58.47
83424;BME280;73355;49.044;8.686;2024-02-28T12:03:56;100183.72;;;10.46;57.86
83424;BME280;73355;49.044;8.686;2024-02-28T12:06:23;100179.06;;;10.47;57.73
83424;BME280;73355;49.044;8.686;2024-02-28T12:08:48;100173.59;;;10.61;57.61
83424;BME280;73355;49.044;8.686;2024-02-28T12:11:13;100175.91;;;10.69;57.37
83424;BME280;73355;49.044;8.686;2024-02-28T12:13:44;100175.41;;;11.03;58.10
83424;BME280;73355;49.044;8.686;2024-02-28T12:16:10;100169.66;;;11.67;56.97
83424;BME280;73355;49.044;8.686;2024-02-28T12:18:35;100164.81;;;11.92;55.94
83424;BME280;73355;49.044;8.686;2024-02-28T12:21:01;100166.00;;;11.87;54.48
83424;BME280;73355;49.044;8.686;2024-02-28T12:23:27;100158.53;;;11.98;54.64
83424;BME280;73355;49.044;8.686;2024-02-28T12:25:52;100154.94;;;12.50;54.53
83424;BME280;73355;49.044;8.686;2024-02-28T12:28:23;100150.84;;;13.02;53.16
83424;BME280;73355;49.044;8.686;2024-02-28T12:30:49;100145.13;;;13.23;51.64
83424;BME280;73355;49.044;8.686;2024-02-28T12:33:14;100140.88;;;13.49;51.22
83424;BME280;73355;49.044;8.686;2024-02-28T12:35:39;100143.91;;;13.82;51.07
83424;BME280;73355;49.044;8.686;2024-02-28T12:38:06;100139.25;;;14.02;49.95
83424;BME280;73355;49.044;8.686;2024-02-28T12:40:32;100133.78;;;14.02;48.72
83424;BME280;73355;49.044;8.686;2024-02-28T12:42:57;100130.06;;;14.16;48.93
83424;BME280;73355;49.044;8.686;2024-02-28T12:45:22;100126.06;;;14.43;48.40
83424;BME280;73355;49.044;8.686;2024-02-28T12:47:48;100120.75;;;14.56;47.76
83424;BME280;73355;49.044;8.686;2024-02-28T12:52:56;100111.03;;;14.52;46.47
83424;BME280;73355;49.044;8.686;2024-02-28T12:55:22;100115.66;;;14.55;47.25
83424;BME280;73355;49.044;8.686;2024-02-28T12:57:48;100105.06;;;14.76;47.18
83424;BME280;73355;49.044;8.686;2024-02-28T13:00:13;100103.50;;;14.75;47.01